createdAt,value
2018-08-28T00:00:10.117Z,70.38
2018-08-28T00:01:10.044Z,70.00
2018-08-28T00:02:09.970Z,69.42
2018-08-28T00:03:09.898Z,70.19
2018-08-28T00:04:09.823Z,70.96
2018-08-28T00:05:09.750Z,69.42
2018-08-28T00:06:09.676Z,70.57
2018-08-28T00:07:09.603Z,70.48
2018-08-28T00:08:09.528Z,70.67
2018-08-28T00:09:09.455Z,70.29
2018-08-28T00:10:09.383Z,70.38
2018-08-28T00:11:09.308Z,70.00
2018-08-28T00:12:09.233Z,69.13
2018-08-28T00:13:09.160Z,68.56
2018-08-28T00:14:09.090Z,68.08
2018-08-28T00:15:09.015Z,68.66
2018-08-28T00:16:08.938Z,68.56
2018-08-28T00:17:08.896Z,67.50
2018-08-28T00:18:08.793Z,68.56
2018-08-28T00:19:08.721Z,68.27
2018-08-28T00:20:08.649Z,68.85
2018-08-28T00:21:08.571Z,69.33
2018-08-28T00:22:08.495Z,69.52
2018-08-28T00:23:08.423Z,69.81
2018-08-28T00:24:08.348Z,70.48
2018-08-28T00:25:08.276Z,71.05
2018-08-28T00:26:08.201Z,70.86
2018-08-28T00:27:08.128Z,70.48
2018-08-28T00:28:08.054Z,69.62
2018-08-28T00:29:07.983Z,69.04
2018-08-28T00:30:07.907Z,68.66
2018-08-28T00:31:07.832Z,68.08
2018-08-28T00:32:07.758Z,68.52
2018-08-28T00:33:07.684Z,68.66
2018-08-28T00:34:07.610Z,67.47
2018-08-28T00:35:07.538Z,67.85
2018-08-28T00:36:07.462Z,66.71
2018-08-28T00:37:07.388Z,66.32
2018-08-28T00:38:07.316Z,65.75
2018-08-28T00:39:07.242Z,64.31
2018-08-28T00:40:07.167Z,63.26
2018-08-28T00:41:07.092Z,61.91
2018-08-28T00:42:07.019Z,61.69
2018-08-28T00:43:06.946Z,61.31
2018-08-28T00:44:06.873Z,60.35
2018-08-28T00:45:06.798Z,59.58
2018-08-28T00:46:06.723Z,58.62
2018-08-28T00:47:06.651Z,56.90
2018-08-28T00:48:06.575Z,54.99
2018-08-28T00:49:06.500Z,55.05
2018-08-28T00:50:06.428Z,54.10
2018-08-28T00:51:06.353Z,54.77
2018-08-28T00:52:06.276Z,52.75
2018-08-28T00:53:06.203Z,52.28
2018-08-28T00:54:06.129Z,52.75
2018-08-28T00:55:06.057Z,54.26
2018-08-28T00:56:05.981Z,55.12
2018-08-28T00:57:05.906Z,55.02
2018-08-28T00:58:05.832Z,54.07
2018-08-28T00:59:05.757Z,51.58
2018-08-28T01:00:05.682Z,50.05
2018-08-28T01:01:05.608Z,50.12
2018-08-28T01:02:05.568Z,50.98
2018-08-28T01:03:05.459Z,51.17
2018-08-28T01:04:05.385Z,51.36
2018-08-28T01:05:05.310Z,50.70
2018-08-28T01:06:05.235Z,50.60
2018-08-28T01:07:05.160Z,49.26
2018-08-28T01:08:05.084Z,48.68
2018-08-28T01:09:05.011Z,48.21
2018-08-28T01:10:04.936Z,47.63
2018-08-28T01:11:04.862Z,45.15
2018-08-28T01:12:04.786Z,45.22
2018-08-28T01:13:04.711Z,45.31
2018-08-28T01:14:04.635Z,44.74
2018-08-28T01:15:04.561Z,45.31
2018-08-28T01:16:04.487Z,46.08
2018-08-28T01:17:04.412Z,44.74
2018-08-28T01:18:04.335Z,44.74
2018-08-28T01:19:04.262Z,44.84
2018-08-28T01:20:04.192Z,44.93
2018-08-28T01:21:04.110Z,46.66
2018-08-28T01:22:04.035Z,46.27
2018-08-28T01:23:03.964Z,44.65
2018-08-28T01:24:03.884Z,42.73
2018-08-28T01:25:03.808Z,42.16
2018-08-28T01:26:03.734Z,41.01
2018-08-28T01:27:03.658Z,41.30
2018-08-28T01:28:03.582Z,40.06
2018-08-28T01:29:03.508Z,39.67
2018-08-28T01:30:03.432Z,39.77
2018-08-28T01:31:03.357Z,39.39
2018-08-28T01:32:03.280Z,38.53
2018-08-28T01:33:03.208Z,38.91
2018-08-28T01:34:03.133Z,39.65
2018-08-28T01:35:03.056Z,39.58
2018-08-28T01:36:02.982Z,39.10
2018-08-28T01:37:02.906Z,39.37
2018-08-28T01:38:02.828Z,39.84
2018-08-28T01:39:02.754Z,41.09
2018-08-28T01:40:02.680Z,41.18
2018-08-28T01:41:02.601Z,39.65
2018-08-28T01:42:02.526Z,38.51
2018-08-28T01:43:02.451Z,38.03
2018-08-28T01:44:02.373Z,38.03
2018-08-28T01:45:02.298Z,38.32
2018-08-28T01:46:02.224Z,38.41
2018-08-28T01:47:02.147Z,38.03
2018-08-28T01:48:02.073Z,37.55
2018-08-28T01:49:01.996Z,37.65
2018-08-28T01:50:01.920Z,38.89
2018-08-28T01:51:01.845Z,41.66
2018-08-28T01:52:01.779Z,42.52
2018-08-28T01:53:01.694Z,43.76
2018-08-28T01:54:01.617Z,43.95
2018-08-28T01:55:01.543Z,44.72
2018-08-28T01:56:01.465Z,44.72
2018-08-28T01:57:01.390Z,44.43
2018-08-28T01:58:01.314Z,44.05
2018-08-28T01:59:01.239Z,43.76
2018-08-28T02:00:01.162Z,44.15
2018-08-28T02:01:01.090Z,44.12
2018-08-28T02:02:01.010Z,44.51
2018-08-28T02:03:00.936Z,43.55
2018-08-28T02:04:00.858Z,41.83
2018-08-28T02:05:00.782Z,40.20
2018-08-28T02:06:00.706Z,39.06
2018-08-28T02:07:00.631Z,39.54
2018-08-28T02:08:00.554Z,40.59
2018-08-28T02:09:00.478Z,40.01
2018-08-28T02:10:00.403Z,38.96
2018-08-28T02:11:00.328Z,39.54
2018-08-28T02:12:00.251Z,39.92
2018-08-28T02:13:00.217Z,40.97
2018-08-28T02:14:00.097Z,41.55
2018-08-28T02:15:00.023Z,42.60
2018-08-28T02:15:59.946Z,42.60
2018-08-28T02:16:59.869Z,44.79
2018-08-28T02:17:59.793Z,46.03
2018-08-28T02:18:59.718Z,45.94
2018-08-28T02:19:59.643Z,44.31
2018-08-28T02:20:59.564Z,43.07
2018-08-28T02:21:59.489Z,43.36
2018-08-28T02:22:59.413Z,43.91
2018-08-28T02:23:59.336Z,43.82
2018-08-28T02:24:59.259Z,43.15
2018-08-28T02:25:59.184Z,41.81
2018-08-28T02:26:59.106Z,42.67
2018-08-28T02:27:59.029Z,43.62
2018-08-28T02:28:58.953Z,43.82
2018-08-28T02:29:58.877Z,43.24
2018-08-28T02:30:58.801Z,42.38
2018-08-28T02:31:58.726Z,41.62
2018-08-28T02:32:58.647Z,43.53
2018-08-28T02:33:58.571Z,43.62
2018-08-28T02:34:58.495Z,44.48
2018-08-28T02:35:58.420Z,44.48
2018-08-28T02:36:58.342Z,42.86
2018-08-28T02:37:58.266Z,43.72
2018-08-28T02:38:58.190Z,45.06
2018-08-28T02:39:58.112Z,44.65
2018-08-28T02:40:58.035Z,43.72
2018-08-28T02:41:57.962Z,43.72
2018-08-28T02:42:57.883Z,45.13
2018-08-28T02:43:57.805Z,45.25
2018-08-28T02:44:57.730Z,43.91
2018-08-28T02:45:57.655Z,43.72
2018-08-28T02:46:57.577Z,43.62
2018-08-28T02:47:57.505Z,42.29
2018-08-28T02:48:57.422Z,41.50
2018-08-28T02:49:57.347Z,42.36
2018-08-28T02:50:57.270Z,42.17
2018-08-28T02:51:57.204Z,42.65
2018-08-28T02:52:57.114Z,43.05
2018-08-28T02:53:57.040Z,41.41
2018-08-28T02:54:56.962Z,40.93
2018-08-28T02:55:56.884Z,41.60
2018-08-28T02:56:56.806Z,42.17
2018-08-28T02:57:56.731Z,41.98
2018-08-28T02:58:56.660Z,42.65
2018-08-28T02:59:56.578Z,42.36
2018-08-28T03:00:56.500Z,41.03
2018-08-28T03:01:56.424Z,41.79
2018-08-28T03:02:56.423Z,43.51
2018-08-28T03:03:56.270Z,44.37
2018-08-28T03:04:56.196Z,43.79
2018-08-28T03:05:56.115Z,42.74
2018-08-28T03:06:56.042Z,43.70
2018-08-28T03:07:55.962Z,43.51
2018-08-28T03:08:55.884Z,43.51
2018-08-28T03:09:55.807Z,42.93
2018-08-28T03:10:55.732Z,42.93
2018-08-28T03:11:55.653Z,43.60
2018-08-28T03:12:55.580Z,43.79
2018-08-28T03:13:55.500Z,42.65
2018-08-28T03:14:55.422Z,42.72
2018-08-28T03:15:55.366Z,42.17
2018-08-28T03:16:55.272Z,41.41
2018-08-28T03:17:55.190Z,41.88
2018-08-28T03:18:55.114Z,40.93
2018-08-28T03:19:55.037Z,40.74
2018-08-28T03:20:54.959Z,40.93
2018-08-28T03:21:54.882Z,41.22
2018-08-28T03:22:54.807Z,40.55
2018-08-28T03:23:54.726Z,40.72
2018-08-28T03:24:54.650Z,40.74
2018-08-28T03:25:54.573Z,40.63
2018-08-28T03:26:54.498Z,40.64
2018-08-28T03:27:54.419Z,40.17
2018-08-28T03:28:54.350Z,41.00
2018-08-28T03:29:54.265Z,40.63
2018-08-28T03:30:54.187Z,41.67
2018-08-28T03:31:54.110Z,42.34
2018-08-28T03:32:54.032Z,41.48
2018-08-28T03:33:53.954Z,41.39
2018-08-28T03:34:53.879Z,40.91
2018-08-28T03:35:53.801Z,40.72
2018-08-28T03:36:53.723Z,40.53
2018-08-28T03:37:53.645Z,42.05
2018-08-28T03:38:53.568Z,41.96
2018-08-28T03:39:53.490Z,41.00
2018-08-28T03:40:53.414Z,40.72
2018-08-28T03:41:53.335Z,40.63
2018-08-28T03:42:53.262Z,40.44
2018-08-28T03:43:53.181Z,40.34
2018-08-28T03:44:53.244Z,39.29
2018-08-28T03:45:53.027Z,38.62
2018-08-28T03:46:52.949Z,39.00
2018-08-28T03:47:52.873Z,39.39
2018-08-28T03:48:52.795Z,39.19
2018-08-28T03:49:52.716Z,40.53
2018-08-28T03:50:52.640Z,42.44
2018-08-28T03:51:52.562Z,43.01
2018-08-28T03:52:52.484Z,41.48
2018-08-28T03:53:52.409Z,40.05
2018-08-28T03:54:52.331Z,39.58
2018-08-28T03:55:52.257Z,39.58
2018-08-28T03:56:52.175Z,40.24
2018-08-28T03:57:52.097Z,39.76
2018-08-28T03:58:52.021Z,40.34
2018-08-28T03:59:51.942Z,40.44
2018-08-28T04:00:51.865Z,41.29
2018-08-28T04:01:51.788Z,41.48
2018-08-28T04:02:51.710Z,41.00
2018-08-28T04:03:51.634Z,40.53
2018-08-28T04:04:51.556Z,40.81
2018-08-28T04:05:51.478Z,40.63
2018-08-28T04:06:51.400Z,41.96
2018-08-28T04:07:51.322Z,42.34
2018-08-28T04:08:51.244Z,41.58
2018-08-28T04:09:51.168Z,40.91
2018-08-28T04:10:51.090Z,40.81
2018-08-28T04:11:51.019Z,40.44
2018-08-28T04:12:50.936Z,40.91
2018-08-28T04:13:50.857Z,40.91
2018-08-28T04:14:50.780Z,39.86
2018-08-28T04:15:50.701Z,39.86
2018-08-28T04:16:50.624Z,40.34
2018-08-28T04:17:50.549Z,39.67
2018-08-28T04:18:50.470Z,38.62
2018-08-28T04:19:50.392Z,39.29
2018-08-28T04:20:50.315Z,39.67
2018-08-28T04:21:50.237Z,40.24
2018-08-28T04:22:50.160Z,40.12
2018-08-28T04:23:50.081Z,39.67
2018-08-28T04:24:50.005Z,39.76
2018-08-28T04:25:49.926Z,39.19
2018-08-28T04:26:49.850Z,39.58
2018-08-28T04:27:49.770Z,40.60
2018-08-28T04:28:49.695Z,40.80
2018-08-28T04:29:49.616Z,40.89
2018-08-28T04:30:49.568Z,40.89
2018-08-28T04:31:49.460Z,41.17
2018-08-28T04:32:49.383Z,41.36
2018-08-28T04:33:49.312Z,40.80
2018-08-28T04:34:49.228Z,39.94
2018-08-28T04:35:49.149Z,38.70
2018-08-28T04:36:49.071Z,38.32
2018-08-28T04:37:48.994Z,39.17
2018-08-28T04:38:48.917Z,39.46
2018-08-28T04:39:48.838Z,39.75
2018-08-28T04:40:48.760Z,40.03
2018-08-28T04:41:48.695Z,39.27
2018-08-28T04:42:48.606Z,39.75
2018-08-28T04:43:48.527Z,39.94
2018-08-28T04:44:48.450Z,38.70
2018-08-28T04:45:48.373Z,39.36
2018-08-28T04:46:48.295Z,40.89
2018-08-28T04:47:48.216Z,40.32
2018-08-28T04:48:48.165Z,40.12
2018-08-28T04:49:48.061Z,40.60
2018-08-28T04:50:47.983Z,40.70
2018-08-28T04:51:47.906Z,39.56
2018-08-28T04:52:47.827Z,39.08
2018-08-28T04:53:47.750Z,38.60
2018-08-28T04:54:47.676Z,38.51
2018-08-28T04:55:47.594Z,38.60
2018-08-28T04:56:47.516Z,39.75
2018-08-28T04:57:47.439Z,40.41
2018-08-28T04:58:47.360Z,41.08
2018-08-28T04:59:47.282Z,40.80
2018-08-28T05:00:47.274Z,41.17
2018-08-28T05:01:47.128Z,41.08
2018-08-28T05:02:47.050Z,39.84
2018-08-28T05:03:46.971Z,39.75
2018-08-28T05:04:46.895Z,39.84
2018-08-28T05:05:46.817Z,39.36
2018-08-28T05:06:46.739Z,38.22
2018-08-28T05:07:46.760Z,38.89
2018-08-28T05:08:46.582Z,40.32
2018-08-28T05:09:46.505Z,39.84
2018-08-28T05:10:46.428Z,39.65
2018-08-28T05:11:46.407Z,38.60
2018-08-28T05:12:46.276Z,39.56
2018-08-28T05:13:46.196Z,39.75
2018-08-28T05:14:46.129Z,38.60
2018-08-28T05:15:46.084Z,38.12
2018-08-28T05:16:45.959Z,37.93
2018-08-28T05:17:45.882Z,38.22
2018-08-28T05:18:45.804Z,36.98
2018-08-28T05:19:45.726Z,37.17
2018-08-28T05:20:45.648Z,36.79
2018-08-28T05:21:45.570Z,37.65
2018-08-28T05:22:45.493Z,38.03
2018-08-28T05:23:45.415Z,37.76
2018-08-28T05:24:45.336Z,37.66
2018-08-28T05:25:45.258Z,37.65
2018-08-28T05:26:45.181Z,38.05
2018-08-28T05:27:45.104Z,37.48
2018-08-28T05:28:45.025Z,36.90
2018-08-28T05:29:45.249Z,36.71
2018-08-28T05:30:44.873Z,36.90
2018-08-28T05:31:44.795Z,36.81
2018-08-28T05:32:44.713Z,36.71
2018-08-28T05:33:44.636Z,37.29
2018-08-28T05:34:44.559Z,37.57
2018-08-28T05:35:44.479Z,37.19
2018-08-28T05:36:44.403Z,36.81
2018-08-28T05:37:44.326Z,37.86
2018-08-28T05:38:44.247Z,38.62
2018-08-28T05:39:44.170Z,37.95
2018-08-28T05:40:44.093Z,37.66
2018-08-28T05:41:44.015Z,37.29
2018-08-28T05:42:43.937Z,37.29
2018-08-28T05:43:43.858Z,37.29
2018-08-28T05:44:43.781Z,36.81
2018-08-28T05:45:43.704Z,37.29
2018-08-28T05:46:43.627Z,37.29
2018-08-28T05:47:43.548Z,37.48
2018-08-28T05:48:43.472Z,37.97
2018-08-28T05:49:43.405Z,38.83
2018-08-28T05:50:43.318Z,39.88
2018-08-28T05:51:43.239Z,40.64
2018-08-28T05:52:43.163Z,41.03
2018-08-28T05:53:43.086Z,40.83
2018-08-28T05:54:43.009Z,41.12
2018-08-28T05:55:42.957Z,41.31
2018-08-28T05:56:42.855Z,42.17
2018-08-28T05:57:42.777Z,42.55
2018-08-28T05:58:42.706Z,42.08
2018-08-28T05:59:42.625Z,41.31
2018-08-28T06:00:42.545Z,42.27
2018-08-28T06:01:42.473Z,43.32
2018-08-28T06:02:42.394Z,44.08
2018-08-28T06:03:42.314Z,44.08
2018-08-28T06:04:42.240Z,43.89
2018-08-28T06:05:42.162Z,43.32
2018-08-28T06:06:42.085Z,42.96
2018-08-28T06:07:42.007Z,42.65
2018-08-28T06:08:41.980Z,42.27
2018-08-28T06:09:41.854Z,42.08
2018-08-28T06:10:41.777Z,42.29
2018-08-28T06:11:41.700Z,42.19
2018-08-28T06:12:41.623Z,42.86
2018-08-28T06:13:41.546Z,42.96
2018-08-28T06:14:41.481Z,43.15
2018-08-28T06:15:41.393Z,43.05
2018-08-28T06:16:41.316Z,43.05
2018-08-28T06:17:41.240Z,43.05
2018-08-28T06:18:41.164Z,42.77
2018-08-28T06:19:41.088Z,43.15
2018-08-28T06:20:41.010Z,43.24
2018-08-28T06:21:40.935Z,43.93
2018-08-28T06:22:40.858Z,44.12
2018-08-28T06:23:40.781Z,44.79
2018-08-28T06:24:40.705Z,44.98
2018-08-28T06:25:40.630Z,45.37
2018-08-28T06:26:40.553Z,46.03
2018-08-28T06:27:40.477Z,48.23
2018-08-28T06:28:40.401Z,49.66
2018-08-28T06:29:40.325Z,50.62
2018-08-28T06:30:40.248Z,50.62
2018-08-28T06:31:40.181Z,51.29
2018-08-28T06:32:40.096Z,51.60
2018-08-28T06:33:40.020Z,52.08
2018-08-28T06:34:39.944Z,52.26
2018-08-28T06:35:39.868Z,51.70
2018-08-28T06:36:39.792Z,51.70
2018-08-28T06:37:39.717Z,52.08
2018-08-28T06:38:39.642Z,52.08
2018-08-28T06:39:39.567Z,52.36
2018-08-28T06:40:39.490Z,52.26
2018-08-28T06:41:39.414Z,52.84
2018-08-28T06:42:39.339Z,52.46
2018-08-28T06:43:39.271Z,52.26
2018-08-28T06:44:39.186Z,52.26
2018-08-28T06:45:39.112Z,52.29
2018-08-28T06:46:39.036Z,52.29
2018-08-28T06:47:38.961Z,51.91
2018-08-28T06:48:38.886Z,53.06
2018-08-28T06:49:38.847Z,53.25
2018-08-28T06:50:38.734Z,54.11
2018-08-28T06:51:38.660Z,55.16
2018-08-28T06:52:38.587Z,55.54
2018-08-28T06:53:38.507Z,56.02
2018-08-28T06:54:38.438Z,55.64
2018-08-28T06:55:38.356Z,55.93
2018-08-28T06:56:38.306Z,56.50
2018-08-28T06:57:38.205Z,57.20
2018-08-28T06:58:38.131Z,58.54
2018-08-28T06:59:38.055Z,57.48
2018-08-28T07:00:37.980Z,57.39
2018-08-28T07:01:37.905Z,57.58
2018-08-28T07:02:37.831Z,58.54
2018-08-28T07:03:37.758Z,58.15
2018-08-28T07:04:37.679Z,58.63
2018-08-28T07:05:37.606Z,59.30
2018-08-28T07:06:37.530Z,61.44
2018-08-28T07:07:37.456Z,61.82
2018-08-28T07:08:37.379Z,63.06
2018-08-28T07:09:37.311Z,63.83
2018-08-28T07:10:37.230Z,65.08
2018-08-28T07:11:37.156Z,66.41
2018-08-28T07:12:37.081Z,66.03
2018-08-28T07:13:37.004Z,71.87
2018-08-28T07:14:36.932Z,80.43
2018-08-28T07:15:36.856Z,71.14
2018-08-28T07:16:36.782Z,68.65
2018-08-28T07:17:36.708Z,72.29
2018-08-28T07:18:36.681Z,71.08
2018-08-28T07:19:36.559Z,72.23
2018-08-28T07:20:36.485Z,69.83
2018-08-28T07:21:36.410Z,75.58
2018-08-28T07:22:36.335Z,88.32
2018-08-28T07:23:36.260Z,85.83
2018-08-28T07:24:36.187Z,86.98
2018-08-28T07:25:36.158Z,89.57
2018-08-28T07:26:36.038Z,92.06
2018-08-28T07:27:35.964Z,81.71
2018-08-28T07:28:35.888Z,84.44
2018-08-28T07:29:35.816Z,83.29
2018-08-28T07:30:35.743Z,86.35
2018-08-28T07:31:35.691Z,87.50
2018-08-28T07:32:35.593Z,95.94
2018-08-28T07:33:35.519Z,98.33
2018-08-28T07:34:35.446Z,92.30
2018-08-28T07:35:35.371Z,94.93
2018-08-28T07:36:35.298Z,94.98
2018-08-28T07:37:35.480Z,91.34
2018-08-28T07:38:35.151Z,93.30
2018-08-28T07:39:35.076Z,92.34
2018-08-28T07:40:35.003Z,89.65
2018-08-28T07:41:34.928Z,92.24
2018-08-28T07:42:34.854Z,89.89
2018-08-28T07:43:34.780Z,97.76
2018-08-28T07:44:34.707Z,97.47
2018-08-28T07:45:34.633Z,97.56
2018-08-28T07:46:34.560Z,97.56
2018-08-28T07:47:34.489Z,92.68
2018-08-28T07:48:34.413Z,99.99
2018-08-28T07:49:34.339Z,99.99
2018-08-28T07:50:34.267Z,99.99
2018-08-28T07:51:34.197Z,99.99
2018-08-28T07:52:34.120Z,99.99
2018-08-28T07:53:34.047Z,98.82
2018-08-28T07:54:33.973Z,99.99
2018-08-28T07:55:33.900Z,99.99
2018-08-28T07:56:33.827Z,99.99
2018-08-28T07:57:33.753Z,99.99
2018-08-28T07:58:33.679Z,99.99
2018-08-28T07:59:33.606Z,99.99
2018-08-28T08:00:33.533Z,99.99
2018-08-28T08:01:33.496Z,99.99
2018-08-28T08:02:33.387Z,99.99
2018-08-28T08:03:33.312Z,99.99
2018-08-28T08:04:33.239Z,99.99
2018-08-28T08:05:33.166Z,99.58
2018-08-28T08:06:33.092Z,99.99
2018-08-28T08:07:33.021Z,99.99
2018-08-28T08:08:32.946Z,99.99
2018-08-28T08:09:32.874Z,99.99
2018-08-28T08:10:32.807Z,99.99
2018-08-28T08:11:32.727Z,99.99
2018-08-28T08:12:32.653Z,98.72
2018-08-28T08:13:32.582Z,99.99
2018-08-28T08:14:32.509Z,99.99
2018-08-28T08:15:32.460Z,98.96
2018-08-28T08:16:32.362Z,94.54
2018-08-28T08:17:32.291Z,96.17
2018-08-28T08:18:32.217Z,95.50
2018-08-28T08:19:32.143Z,97.62
2018-08-28T08:20:32.072Z,93.77
2018-08-28T08:21:31.997Z,89.40
2018-08-28T08:22:31.925Z,92.67
2018-08-28T08:23:31.852Z,90.27
2018-08-28T08:24:31.779Z,94.21
2018-08-28T08:25:31.706Z,95.50
2018-08-28T08:26:31.632Z,91.95
2018-08-28T08:27:31.559Z,93.68
2018-08-28T08:28:31.487Z,88.59
2018-08-28T08:29:31.414Z,86.28
2018-08-28T08:30:31.341Z,92.62
2018-08-28T08:31:31.268Z,94.26
2018-08-28T08:32:31.195Z,91.28
2018-08-28T08:33:31.123Z,88.68
2018-08-28T08:34:31.050Z,94.45
2018-08-28T08:35:30.983Z,94.16
2018-08-28T08:36:30.910Z,90.41
2018-08-28T08:37:30.832Z,91.32
2018-08-28T08:38:30.761Z,93.82
2018-08-28T08:39:30.686Z,96.51
2018-08-28T08:40:30.614Z,94.30
2018-08-28T08:41:30.541Z,98.24
2018-08-28T08:42:30.470Z,92.29
2018-08-28T08:43:30.399Z,91.90
2018-08-28T08:44:30.324Z,90.45
2018-08-28T08:45:30.252Z,91.61
2018-08-28T08:46:30.178Z,93.63
2018-08-28T08:47:30.107Z,92.76
2018-08-28T08:48:30.033Z,95.65
2018-08-28T08:49:29.961Z,93.73
2018-08-28T08:50:29.888Z,92.09
2018-08-28T08:51:29.817Z,87.23
2018-08-28T08:52:29.746Z,89.25
2018-08-28T08:53:29.672Z,82.38
2018-08-28T08:54:29.599Z,81.71
2018-08-28T08:55:29.526Z,80.75
2018-08-28T08:56:29.458Z,81.81
2018-08-28T08:57:29.483Z,84.01
2018-08-28T08:58:29.310Z,86.61
2018-08-28T08:59:29.244Z,84.78
2018-08-28T09:00:29.166Z,86.13
2018-08-28T09:01:29.109Z,85.94
2018-08-28T09:02:29.022Z,83.15
2018-08-28T09:03:28.948Z,85.27
2018-08-28T09:04:28.876Z,90.45
2018-08-28T09:05:28.816Z,91.99
2018-08-28T09:06:28.734Z,94.68
2018-08-28T09:07:28.660Z,94.35
2018-08-28T09:08:28.588Z,94.64
2018-08-28T09:09:28.524Z,95.50
2018-08-28T09:10:28.443Z,91.85
2018-08-28T09:11:28.369Z,96.66
2018-08-28T09:12:28.297Z,95.89
2018-08-28T09:13:28.234Z,98.53
2018-08-28T09:14:28.155Z,91.66
2018-08-28T09:15:28.082Z,89.88
2018-08-28T09:16:28.009Z,86.04
2018-08-28T09:17:27.937Z,84.01
2018-08-28T09:18:27.865Z,85.84
2018-08-28T09:19:27.902Z,88.92
2018-08-28T09:20:27.720Z,87.86
2018-08-28T09:21:27.647Z,88.73
2018-08-28T09:22:27.576Z,84.40
2018-08-28T09:23:27.502Z,82.09
2018-08-28T09:24:27.431Z,82.57
2018-08-28T09:25:27.359Z,81.46
2018-08-28T09:26:27.287Z,83.39
2018-08-28T09:27:27.212Z,79.05
2018-08-28T09:28:27.142Z,77.81
2018-08-28T09:29:27.071Z,79.92
2018-08-28T09:30:26.998Z,81.17
2018-08-28T09:31:26.985Z,77.81
2018-08-28T09:32:26.882Z,79.44
2018-08-28T09:33:26.782Z,77.42
2018-08-28T09:34:26.710Z,79.15
2018-08-28T09:35:26.636Z,79.63
2018-08-28T09:36:26.565Z,80.11
2018-08-28T09:37:26.492Z,77.81
2018-08-28T09:38:26.500Z,78.52
2018-08-28T09:39:26.350Z,80.25
2018-08-28T09:40:26.277Z,77.56
2018-08-28T09:41:26.205Z,77.94
2018-08-28T09:42:26.132Z,77.26
2018-08-28T09:43:26.061Z,80.06
2018-08-28T09:44:25.989Z,77.36
2018-08-28T09:45:25.917Z,76.98
2018-08-28T09:46:25.846Z,79.00
2018-08-28T09:47:25.771Z,78.42
2018-08-28T09:48:25.779Z,77.17
2018-08-28T09:49:25.635Z,76.88
2018-08-28T09:50:25.617Z,79.86
2018-08-28T09:51:25.485Z,78.33
2018-08-28T09:52:25.415Z,79.28
2018-08-28T09:53:25.341Z,76.50
2018-08-28T09:54:25.269Z,73.99
2018-08-28T09:55:25.198Z,74.76
2018-08-28T09:56:25.166Z,76.31
2018-08-28T09:57:25.055Z,75.73
2018-08-28T09:58:24.986Z,75.82
2018-08-28T09:59:24.909Z,74.48
2018-08-28T10:00:24.838Z,74.48
2018-08-28T10:01:24.768Z,74.29
2018-08-28T10:02:24.695Z,75.34
2018-08-28T10:03:24.623Z,75.92
2018-08-28T10:04:24.560Z,75.44
2018-08-28T10:05:24.479Z,77.65
2018-08-28T10:06:24.408Z,82.12
2018-08-28T10:07:24.335Z,78.08
2018-08-28T10:08:24.263Z,77.31
2018-08-28T10:09:24.192Z,74.99
2018-08-28T10:10:24.120Z,74.61
2018-08-28T10:11:24.047Z,74.32
2018-08-28T10:12:23.979Z,73.74
2018-08-28T10:13:23.904Z,73.78
2018-08-28T10:14:23.834Z,75.23
2018-08-28T10:15:23.760Z,73.20
2018-08-28T10:16:23.689Z,73.97
2018-08-28T10:17:23.693Z,71.18
2018-08-28T10:18:23.545Z,72.11
2018-08-28T10:19:23.474Z,74.26
2018-08-28T10:20:23.402Z,73.88
2018-08-28T10:21:23.330Z,72.63
2018-08-28T10:22:23.259Z,73.01
2018-08-28T10:23:23.186Z,70.92
2018-08-28T10:24:23.115Z,71.56
2018-08-28T10:25:23.043Z,71.76
2018-08-28T10:26:22.975Z,72.18
2018-08-28T10:27:22.902Z,70.21
2018-08-28T10:28:22.830Z,69.73
2018-08-28T10:29:22.758Z,69.73
2018-08-28T10:30:22.817Z,70.70
2018-08-28T10:31:22.615Z,70.41
2018-08-28T10:32:22.544Z,70.02
2018-08-28T10:33:22.473Z,72.24
2018-08-28T10:34:22.401Z,70.76
2018-08-28T10:35:22.329Z,71.28
2018-08-28T10:36:22.258Z,69.45
2018-08-28T10:37:22.188Z,72.05
2018-08-28T10:38:22.120Z,73.01
2018-08-28T10:39:22.043Z,71.28
2018-08-28T10:40:21.972Z,72.14
2018-08-28T10:41:21.904Z,73.91
2018-08-28T10:42:21.829Z,68.77
2018-08-28T10:43:21.758Z,69.83
2018-08-28T10:44:21.687Z,70.25
2018-08-28T10:45:21.616Z,68.04
2018-08-28T10:46:21.610Z,68.71
2018-08-28T10:47:21.473Z,68.04
2018-08-28T10:48:21.402Z,67.26
2018-08-28T10:49:21.330Z,68.61
2018-08-28T10:50:21.263Z,68.04
2018-08-28T10:51:21.189Z,68.04
2018-08-28T10:52:21.116Z,68.10
2018-08-28T10:53:21.046Z,69.19
2018-08-28T10:54:20.974Z,68.13
2018-08-28T10:55:20.902Z,68.45
2018-08-28T10:56:20.832Z,66.33
2018-08-28T10:57:20.762Z,66.94
2018-08-28T10:58:20.691Z,65.11
2018-08-28T10:59:20.619Z,65.34
2018-08-28T11:00:20.549Z,65.75
2018-08-28T11:01:20.479Z,64.21
2018-08-28T11:02:20.408Z,65.66
2018-08-28T11:03:20.338Z,65.85
2018-08-28T11:04:20.331Z,70.14
2018-08-28T11:05:20.198Z,65.56
2018-08-28T11:06:20.129Z,65.37
2018-08-28T11:07:20.061Z,63.76
2018-08-28T11:08:19.987Z,64.43
2018-08-28T11:09:19.918Z,63.37
2018-08-28T11:10:19.848Z,63.47
2018-08-28T11:11:19.778Z,62.21
2018-08-28T11:12:19.709Z,61.63
2018-08-28T11:13:19.640Z,61.54
2018-08-28T11:14:19.569Z,61.86
2018-08-28T11:15:19.499Z,59.70
2018-08-28T11:16:19.432Z,61.80
2018-08-28T11:17:19.361Z,62.95
2018-08-28T11:18:19.293Z,62.08
2018-08-28T11:19:19.223Z,62.37
2018-08-28T11:20:19.154Z,61.70
2018-08-28T11:21:19.085Z,64.01
2018-08-28T11:22:19.026Z,63.85
2018-08-28T11:23:18.945Z,63.95
2018-08-28T11:24:18.876Z,63.85
2018-08-28T11:25:18.807Z,61.41
2018-08-28T11:26:18.740Z,62.66
2018-08-28T11:27:18.671Z,63.34
2018-08-28T11:28:18.606Z,62.12
2018-08-28T11:29:18.530Z,62.63
2018-08-28T11:30:18.461Z,63.40
2018-08-28T11:31:18.423Z,61.08
2018-08-28T11:32:18.323Z,62.08
2018-08-28T11:33:18.254Z,64.89
2018-08-28T11:34:18.190Z,61.89
2018-08-28T11:35:18.115Z,59.53
2018-08-28T11:36:18.046Z,60.34
2018-08-28T11:37:17.980Z,59.11
2018-08-28T11:38:17.955Z,58.69
2018-08-28T11:39:17.843Z,56.59
2018-08-28T11:40:17.774Z,55.20
2018-08-28T11:41:17.706Z,56.59
2018-08-28T11:42:17.639Z,56.59
2018-08-28T11:43:17.572Z,54.09
2018-08-28T11:44:17.510Z,53.27
2018-08-28T11:45:17.439Z,51.84
2018-08-28T11:46:17.373Z,50.38
2018-08-28T11:47:17.396Z,50.63
2018-08-28T11:48:17.242Z,48.88
2018-08-28T11:49:17.179Z,49.05
2018-08-28T11:50:17.111Z,50.60
2018-08-28T11:51:17.052Z,49.85
2018-08-28T11:52:17.042Z,48.83
2018-08-28T11:53:17.021Z,50.19
2018-08-28T11:54:16.856Z,49.10
2018-08-28T11:55:16.792Z,49.02
2018-08-28T11:56:16.729Z,48.66
2018-08-28T11:57:16.665Z,47.30
2018-08-28T11:58:16.605Z,47.76
2018-08-28T11:59:16.539Z,48.27
2018-08-28T12:00:16.482Z,46.64
2018-08-28T12:01:16.416Z,47.36
2018-08-28T12:02:16.353Z,47.61
2018-08-28T12:03:16.291Z,45.00
2018-08-28T12:04:16.234Z,46.37
2018-08-28T12:05:16.238Z,45.71
2018-08-28T12:06:16.108Z,45.73
2018-08-28T12:07:16.088Z,43.27
2018-08-28T12:08:15.987Z,45.03
2018-08-28T12:09:15.927Z,46.22
2018-08-28T12:10:15.867Z,45.68
2018-08-28T12:11:15.806Z,42.55
2018-08-28T12:12:15.746Z,45.14
2018-08-28T12:13:15.753Z,46.30
2018-08-28T12:14:15.627Z,47.52
2018-08-28T12:15:15.565Z,44.42
2018-08-28T12:16:15.505Z,45.49
2018-08-28T12:17:15.452Z,44.93
2018-08-28T12:18:15.388Z,44.54
2018-08-28T12:19:15.327Z,44.20
2018-08-28T12:20:15.314Z,45.54
2018-08-28T12:21:15.209Z,46.76
2018-08-28T12:22:15.147Z,45.57
2018-08-28T12:26:40.758Z,45.08
2018-08-28T12:27:40.660Z,45.49
2018-08-28T12:28:40.605Z,44.66
2018-08-28T12:29:40.626Z,42.73
2018-08-28T12:30:40.487Z,44.02
2018-08-28T12:31:40.429Z,43.46
2018-08-28T12:32:40.372Z,42.50
2018-08-28T12:33:40.314Z,40.72
2018-08-28T12:34:40.256Z,41.09
2018-08-28T12:35:40.203Z,41.87
2018-08-28T12:36:40.203Z,42.68
2018-08-28T12:37:40.086Z,40.21
2018-08-28T12:38:40.032Z,40.78
2018-08-28T12:39:39.973Z,40.83
2018-08-28T12:40:39.917Z,41.54
2018-08-28T12:41:39.860Z,42.14
2018-08-28T12:42:39.818Z,41.85
2018-08-28T12:43:39.749Z,40.80
2018-08-28T12:44:39.692Z,40.60
2018-08-28T12:45:39.634Z,41.21
2018-08-28T12:46:39.580Z,40.48
2018-08-28T12:47:39.527Z,41.66
2018-08-28T12:48:39.468Z,41.09
2018-08-28T12:49:39.414Z,40.58
2018-08-28T12:50:39.356Z,40.73
2018-08-28T12:51:39.300Z,41.77
2018-08-28T12:52:39.244Z,43.62
2018-08-28T12:53:39.187Z,43.85
2018-08-28T12:54:39.131Z,42.51